Tucson, AZ (85705)

11:33 PM MST on September 30, 2016 (GMT -0700)
Westwood Terrace Addition | | Change Station

Elev 2316 ft 32.28 °N, 110.99 °W | Updated 8 minutes ago

Clear
Clear
71.4 °F
Feels Like 75 °F
N
0.0
Wind Variable Wind from ESE

Today
High -- | Low -- °F
--% Chance of Precip.
Yesterday
High -- | Low -- °F
Precip. -- in
Pressure 29.97 in
Visibility 10.0 miles
Clouds Clear
Heat Index 75 °F
Dew Point 60 °F
Humidity 66%
Rainfall in
Snow Depth Not available.
6:17 AM 6:09 PM
New Moon, 0% visible
METAR KDMA 010558Z AUTO 14007KT 10SM CLR 22/15 A3008 RMK AO2 SLP147 60001 T02150150 10283 20213 52008 CHINO RWY30 $
Pressure 29.97 in
Visibility 10.0 miles
Clouds Clear
Heat Index 75 °F
Dew Point 60 °F
Humidity 66%
Rainfall in
Snow Depth Not available.
6:17 AM 6:09 PM
New Moon, 0% visible
METAR KDMA 010558Z AUTO 14007KT 10SM CLR 22/15 A3008 RMK AO2 SLP147 60001 T02150150 10283 20213 52008 CHINO RWY30 $

10-Day Weather Forecast

Almanac

Astronomy

Sep. 30, 2016 Rise Set
Actual Time
Civil Twilight
Nautical Twilight
Astronomical Twilight
Moon
Length of Visible Light
Length of Day
Tomorrow will be .
, % of the Moon is Illuminated

Today's Extremes

State Highs State Lows

Community

WunderPhotos

Upload Photos

1,942,898 photos uploaded!

WunderBlog® & News

Nearby

Air Quality

  Air Quality AQ Index Pollutant
Not available.

Snow Depth

Station Depth Elevation

Earthquake Activity

City Distance Mag. Time & Date
Minimum magnitude displayed is 2.5.

Coastal Water Temperatures

Place Temperature

Stations

Nearby Weather Stations

Station Location Temp. Windchill Dew Point Humidity Wind Precip. Elev Updated Type
                   

Watches & Warnings

There are currently no watches in effect.